sensor_id;sensor_type;location;lat;lon;timestamp;pressure;altitude;pressure_sealevel;temperature
20289;BMP180;10303;51.960;8.372;2023-03-21T00:01:58;100579.00;;;12.90
20289;BMP180;10303;51.960;8.372;2023-03-21T00:04:25;100574.00;;;12.90
20289;BMP180;10303;51.960;8.372;2023-03-21T00:06:52;100578.00;;;13.00
20289;BMP180;10303;51.960;8.372;2023-03-21T00:09:19;100571.00;;;12.90
20289;BMP180;10303;51.960;8.372;2023-03-21T00:11:46;100583.00;;;13.00
20289;BMP180;10303;51.960;8.372;2023-03-21T00:14:15;100582.00;;;13.00
20289;BMP180;10303;51.960;8.372;2023-03-21T00:16:43;100566.00;;;13.00
20289;BMP180;10303;51.960;8.372;2023-03-21T00:19:16;100563.00;;;13.00
20289;BMP180;10303;51.960;8.372;2023-03-21T00:21:42;100572.00;;;13.00
20289;BMP180;10303;51.960;8.372;2023-03-21T00:24:08;100567.00;;;13.00
20289;BMP180;10303;51.960;8.372;2023-03-21T00:26:34;100565.00;;;13.00
20289;BMP180;10303;51.960;8.372;2023-03-21T00:29:00;100562.00;;;13.00
20289;BMP180;10303;51.960;8.372;2023-03-21T00:31:26;100550.00;;;13.00
20289;BMP180;10303;51.960;8.372;2023-03-21T00:33:52;100549.00;;;13.10
20289;BMP180;10303;51.960;8.372;2023-03-21T00:36:18;100549.00;;;13.10
20289;BMP180;10303;51.960;8.372;2023-03-21T00:38:44;100552.00;;;13.10
20289;BMP180;10303;51.960;8.372;2023-03-21T00:41:12;100542.00;;;13.10
20289;BMP180;10303;51.960;8.372;2023-03-21T00:43:39;100549.00;;;13.10
20289;BMP180;10303;51.960;8.372;2023-03-21T00:46:06;100549.00;;;13.10
20289;BMP180;10303;51.960;8.372;2023-03-21T00:48:32;100546.00;;;13.10
20289;BMP180;10303;51.960;8.372;2023-03-21T00:50:58;100543.00;;;13.10
20289;BMP180;10303;51.960;8.372;2023-03-21T00:53:26;100541.00;;;13.00
20289;BMP180;10303;51.960;8.372;2023-03-21T00:55:53;100549.00;;;13.00
20289;BMP180;10303;51.960;8.372;2023-03-21T00:58:19;100531.00;;;13.00
20289;BMP180;10303;51.960;8.372;2023-03-21T01:00:45;100535.00;;;13.00
20289;BMP180;10303;51.960;8.372;2023-03-21T01:03:15;100535.00;;;13.00
20289;BMP180;10303;51.960;8.372;2023-03-21T01:05:45;100530.00;;;13.00
20289;BMP180;10303;51.960;8.372;2023-03-21T01:08:34;100520.00;;;13.00
20289;BMP180;10303;51.960;8.372;2023-03-21T01:11:06;100527.00;;;12.90
20289;BMP180;10303;51.960;8.372;2023-03-21T01:13:32;100524.00;;;13.00
20289;BMP180;10303;51.960;8.372;2023-03-21T01:15:59;100526.00;;;13.00
20289;BMP180;10303;51.960;8.372;2023-03-21T01:18:28;100508.00;;;13.00
20289;BMP180;10303;51.960;8.372;2023-03-21T01:20:58;100524.00;;;13.00
20289;BMP180;10303;51.960;8.372;2023-03-21T01:23:25;100518.00;;;13.00
20289;BMP180;10303;51.960;8.372;2023-03-21T01:25:54;100518.00;;;13.00
20289;BMP180;10303;51.960;8.372;2023-03-21T01:28:20;100524.00;;;13.00
20289;BMP180;10303;51.960;8.372;2023-03-21T01:30:49;100516.00;;;13.00
20289;BMP180;10303;51.960;8.372;2023-03-21T01:33:17;100516.00;;;13.00
20289;BMP180;10303;51.960;8.372;2023-03-21T01:35:44;100507.00;;;13.00
20289;BMP180;10303;51.960;8.372;2023-03-21T01:38:11;100505.00;;;13.10
20289;BMP180;10303;51.960;8.372;2023-03-21T01:40:44;100508.00;;;13.10
20289;BMP180;10303;51.960;8.372;2023-03-21T01:49:23;100509.00;;;13.00
20289;BMP180;10303;51.960;8.372;2023-03-21T01:52:13;100499.00;;;13.10
20289;BMP180;10303;51.960;8.372;2023-03-21T01:54:42;100495.00;;;13.10
20289;BMP180;10303;51.960;8.372;2023-03-21T01:57:16;100504.00;;;13.10
20289;BMP180;10303;51.960;8.372;2023-03-21T01:59:50;100492.00;;;13.10
20289;BMP180;10303;51.960;8.372;2023-03-21T02:02:28;100488.00;;;13.10
20289;BMP180;10303;51.960;8.372;2023-03-21T02:05:06;100493.00;;;13.10
20289;BMP180;10303;51.960;8.372;2023-03-21T02:07:35;100489.00;;;13.10
20289;BMP180;10303;51.960;8.372;2023-03-21T02:10:07;100483.00;;;13.10
20289;BMP180;10303;51.960;8.372;2023-03-21T02:12:35;100491.00;;;13.20
20289;BMP180;10303;51.960;8.372;2023-03-21T02:15:03;100489.00;;;13.20
20289;BMP180;10303;51.960;8.372;2023-03-21T02:18:18;100487.00;;;13.10
20289;BMP180;10303;51.960;8.372;2023-03-21T02:24:26;100476.00;;;13.10
20289;BMP180;10303;51.960;8.372;2023-03-21T02:27:11;100478.00;;;13.10
20289;BMP180;10303;51.960;8.372;2023-03-21T02:30:22;100479.00;;;13.10
20289;BMP180;10303;51.960;8.372;2023-03-21T02:39:07;100470.00;;;13.20
20289;BMP180;10303;51.960;8.372;2023-03-21T02:41:54;100471.00;;;13.20
20289;BMP180;10303;51.960;8.372;2023-03-21T02:44:56;100465.00;;;13.10
20289;BMP180;10303;51.960;8.372;2023-03-21T02:47:29;100458.00;;;13.20
20289;BMP180;10303;51.960;8.372;2023-03-21T02:50:33;100454.00;;;13.10
20289;BMP180;10303;51.960;8.372;2023-03-21T02:53:05;100461.00;;;13.20
20289;BMP180;10303;51.960;8.372;2023-03-21T02:55:36;100456.00;;;13.20
20289;BMP180;10303;51.960;8.372;2023-03-21T02:58:08;100458.00;;;13.20
20289;BMP180;10303;51.960;8.372;2023-03-21T03:00:36;100458.00;;;13.20
20289;BMP180;10303;51.960;8.372;2023-03-21T03:03:03;100459.00;;;13.20
20289;BMP180;10303;51.960;8.372;2023-03-21T03:05:36;100455.00;;;13.20
20289;BMP180;10303;51.960;8.372;2023-03-21T03:11:28;100447.00;;;13.20
20289;BMP180;10303;51.960;8.372;2023-03-21T03:14:44;100455.00;;;13.20
20289;BMP180;10303;51.960;8.372;2023-03-21T03:17:41;100446.00;;;13.30
20289;BMP180;10303;51.960;8.372;2023-03-21T03:20:29;100451.00;;;13.30
20289;BMP180;10303;51.960;8.372;2023-03-21T03:25:43;100449.00;;;13.30
20289;BMP180;10303;51.960;8.372;2023-03-21T03:28:21;100447.00;;;13.40
20289;BMP180;10303;51.960;8.372;2023-03-21T03:30:51;100453.00;;;13.40
20289;BMP180;10303;51.960;8.372;2023-03-21T03:33:24;100443.00;;;13.50
20289;BMP180;10303;51.960;8.372;2023-03-21T03:35:55;100442.00;;;13.50
20289;BMP180;10303;51.960;8.372;2023-03-21T03:38:25;100448.00;;;13.50
20289;BMP180;10303;51.960;8.372;2023-03-21T03:40:58;100433.00;;;13.50
20289;BMP180;10303;51.960;8.372;2023-03-21T03:43:46;100437.00;;;13.50
20289;BMP180;10303;51.960;8.372;2023-03-21T03:46:31;100436.00;;;13.50
20289;BMP180;10303;51.960;8.372;2023-03-21T03:49:14;100439.00;;;13.50
20289;BMP180;10303;51.960;8.372;2023-03-21T03:52:14;100439.00;;;13.50
20289;BMP180;10303;51.960;8.372;2023-03-21T03:54:48;100442.00;;;13.50
20289;BMP180;10303;51.960;8.372;2023-03-21T03:57:16;100433.00;;;13.50
20289;BMP180;10303;51.960;8.372;2023-03-21T03:59:45;100437.00;;;13.50
20289;BMP180;10303;51.960;8.372;2023-03-21T04:02:24;100418.00;;;13.50
20289;BMP180;10303;51.960;8.372;2023-03-21T04:04:50;100430.00;;;13.50
20289;BMP180;10303;51.960;8.372;2023-03-21T04:07:20;100420.00;;;13.50
20289;BMP180;10303;51.960;8.372;2023-03-21T04:09:48;100419.00;;;13.50
20289;BMP180;10303;51.960;8.372;2023-03-21T04:12:17;100413.00;;;13.50
20289;BMP180;10303;51.960;8.372;2023-03-21T04:14:59;100422.00;;;13.50
20289;BMP180;10303;51.960;8.372;2023-03-21T04:17:26;100418.00;;;13.50
20289;BMP180;10303;51.960;8.372;2023-03-21T04:19:52;100412.00;;;13.50
20289;BMP180;10303;51.960;8.372;2023-03-21T04:22:21;100417.00;;;13.50
20289;BMP180;10303;51.960;8.372;2023-03-21T04:24:48;100418.00;;;13.50
20289;BMP180;10303;51.960;8.372;2023-03-21T04:27:14;100416.00;;;13.50
20289;BMP180;10303;51.960;8.372;2023-03-21T04:29:42;100412.00;;;13.50
20289;BMP180;10303;51.960;8.372;2023-03-21T04:32:22;100412.00;;;13.50
20289;BMP180;10303;51.960;8.372;2023-03-21T04:34:57;100410.00;;;13.50
20289;BMP180;10303;51.960;8.372;2023-03-21T04:37:23;100413.00;;;13.50
20289;BMP180;10303;51.960;8.372;2023-03-21T04:39:51;100407.00;;;13.50
20289;BMP180;10303;51.960;8.372;2023-03-21T04:42:17;100404.00;;;13.50
20289;BMP180;10303;51.960;8.372;2023-03-21T04:44:45;100404.00;;;13.50
20289;BMP180;10303;51.960;8.372;2023-03-21T04:47:12;100407.00;;;13.50
20289;BMP180;10303;51.960;8.372;2023-03-21T04:49:44;100400.00;;;13.50
20289;BMP180;10303;51.960;8.372;2023-03-21T04:52:10;100411.00;;;13.50
20289;BMP180;10303;51.960;8.372;2023-03-21T04:54:36;100402.00;;;13.50
20289;BMP180;10303;51.960;8.372;2023-03-21T04:57:02;100396.00;;;13.50
20289;BMP180;10303;51.960;8.372;2023-03-21T04:59:30;100394.00;;;13.50
20289;BMP180;10303;51.960;8.372;2023-03-21T05:01:56;100398.00;;;13.50
20289;BMP180;10303;51.960;8.372;2023-03-21T05:04:24;100395.00;;;13.50
20289;BMP180;10303;51.960;8.372;2023-03-21T05:06:52;100392.00;;;13.50
20289;BMP180;10303;51.960;8.372;2023-03-21T05:09:19;100391.00;;;13.50
20289;BMP180;10303;51.960;8.372;2023-03-21T05:11:48;100394.00;;;13.50
20289;BMP180;10303;51.960;8.372;2023-03-21T05:14:24;100396.00;;;13.50
20289;BMP180;10303;51.960;8.372;2023-03-21T05:16:51;100394.00;;;13.50
20289;BMP180;10303;51.960;8.372;2023-03-21T05:19:29;100394.00;;;13.50
20289;BMP180;10303;51.960;8.372;2023-03-21T05:22:06;100391.00;;;13.50
20289;BMP180;10303;51.960;8.372;2023-03-21T05:24:33;100392.00;;;13.50
20289;BMP180;10303;51.960;8.372;2023-03-21T05:27:05;100398.00;;;13.60
20289;BMP180;10303;51.960;8.372;2023-03-21T05:29:38;100391.00;;;13.60
20289;BMP180;10303;51.960;8.372;2023-03-21T05:32:06;100390.00;;;13.60
20289;BMP180;10303;51.960;8.372;2023-03-21T05:34:32;100391.00;;;13.60
20289;BMP180;10303;51.960;8.372;2023-03-21T05:37:00;100397.00;;;13.60
20289;BMP180;10303;51.960;8.372;2023-03-21T05:39:36;100395.00;;;13.60
20289;BMP180;10303;51.960;8.372;2023-03-21T05:42:08;100398.00;;;13.60
20289;BMP180;10303;51.960;8.372;2023-03-21T05:44:34;100393.00;;;13.60
20289;BMP180;10303;51.960;8.372;2023-03-21T05:47:03;100393.00;;;13.60
20289;BMP180;10303;51.960;8.372;2023-03-21T05:49:38;100392.00;;;13.60
20289;BMP180;10303;51.960;8.372;2023-03-21T05:52:06;100391.00;;;13.60
20289;BMP180;10303;51.960;8.372;2023-03-21T05:54:32;100391.00;;;13.60
20289;BMP180;10303;51.960;8.372;2023-03-21T05:56:58;100399.00;;;13.60
20289;BMP180;10303;51.960;8.372;2023-03-21T05:59:40;100401.00;;;13.60
20289;BMP180;10303;51.960;8.372;2023-03-21T06:02:06;100391.00;;;13.70
20289;BMP180;10303;51.960;8.372;2023-03-21T06:04:32;100396.00;;;13.70
20289;BMP180;10303;51.960;8.372;2023-03-21T06:06:59;100388.00;;;13.70
20289;BMP180;10303;51.960;8.372;2023-03-21T06:09:24;100394.00;;;13.70
20289;BMP180;10303;51.960;8.372;2023-03-21T06:11:56;100385.00;;;13.70
20289;BMP180;10303;51.960;8.372;2023-03-21T06:14:30;100385.00;;;13.70
20289;BMP180;10303;51.960;8.372;2023-03-21T06:17:22;100389.00;;;13.70
20289;BMP180;10303;51.960;8.372;2023-03-21T06:19:54;100389.00;;;13.70
20289;BMP180;10303;51.960;8.372;2023-03-21T06:22:27;100407.00;;;13.70
20289;BMP180;10303;51.960;8.372;2023-03-21T06:24:53;100399.00;;;13.70
20289;BMP180;10303;51.960;8.372;2023-03-21T06:27:19;100386.00;;;13.70
20289;BMP180;10303;51.960;8.372;2023-03-21T06:29:55;100399.00;;;13.80
20289;BMP180;10303;51.960;8.372;2023-03-21T06:32:23;100396.00;;;13.80
20289;BMP180;10303;51.960;8.372;2023-03-21T06:34:56;100402.00;;;13.80
20289;BMP180;10303;51.960;8.372;2023-03-21T06:37:22;100397.00;;;13.80
20289;BMP180;10303;51.960;8.372;2023-03-21T06:39:48;100400.00;;;13.80
20289;BMP180;10303;51.960;8.372;2023-03-21T06:42:14;100401.00;;;13.80
20289;BMP180;10303;51.960;8.372;2023-03-21T06:44:41;100394.00;;;13.80
20289;BMP180;10303;51.960;8.372;2023-03-21T06:47:11;100404.00;;;13.80
20289;BMP180;10303;51.960;8.372;2023-03-21T06:49:39;100402.00;;;13.90
20289;BMP180;10303;51.960;8.372;2023-03-21T06:52:10;100404.00;;;13.90
20289;BMP180;10303;51.960;8.372;2023-03-21T06:54:37;100404.00;;;13.90
20289;BMP180;10303;51.960;8.372;2023-03-21T06:57:09;100405.00;;;13.90
20289;BMP180;10303;51.960;8.372;2023-03-21T06:59:37;100385.00;;;13.90
20289;BMP180;10303;51.960;8.372;2023-03-21T07:02:10;100400.00;;;14.00
20289;BMP180;10303;51.960;8.372;2023-03-21T07:04:43;100399.00;;;14.00
20289;BMP180;10303;51.960;8.372;2023-03-21T07:07:15;100395.00;;;14.00
20289;BMP180;10303;51.960;8.372;2023-03-21T07:09:41;100399.00;;;14.00
20289;BMP180;10303;51.960;8.372;2023-03-21T07:12:08;100396.00;;;14.00
20289;BMP180;10303;51.960;8.372;2023-03-21T07:15:03;100401.00;;;14.10
20289;BMP180;10303;51.960;8.372;2023-03-21T07:17:30;100402.00;;;14.10
20289;BMP180;10303;51.960;8.372;2023-03-21T07:19:56;100397.00;;;14.10
20289;BMP180;10303;51.960;8.372;2023-03-21T07:22:22;100412.00;;;14.10
20289;BMP180;10303;51.960;8.372;2023-03-21T07:24:48;100403.00;;;14.20
20289;BMP180;10303;51.960;8.372;2023-03-21T07:27:16;100409.00;;;14.20
20289;BMP180;10303;51.960;8.372;2023-03-21T07:29:44;100412.00;;;14.20
20289;BMP180;10303;51.960;8.372;2023-03-21T07:32:12;100407.00;;;14.20
20289;BMP180;10303;51.960;8.372;2023-03-21T07:34:38;100410.00;;;14.20
20289;BMP180;10303;51.960;8.372;2023-03-21T07:37:04;100410.00;;;14.20
20289;BMP180;10303;51.960;8.372;2023-03-21T07:39:32;100417.00;;;14.20
20289;BMP180;10303;51.960;8.372;2023-03-21T07:42:00;100414.00;;;14.20
20289;BMP180;10303;51.960;8.372;2023-03-21T07:44:35;100408.00;;;14.20
20289;BMP180;10303;51.960;8.372;2023-03-21T07:47:04;100411.00;;;14.20
20289;BMP180;10303;51.960;8.372;2023-03-21T07:49:31;100405.00;;;14.20
20289;BMP180;10303;51.960;8.372;2023-03-21T07:51:57;100412.00;;;14.20
20289;BMP180;10303;51.960;8.372;2023-03-21T07:54:24;100414.00;;;14.20
20289;BMP180;10303;51.960;8.372;2023-03-21T07:56:50;100419.00;;;14.20
20289;BMP180;10303;51.960;8.372;2023-03-21T07:59:16;100412.00;;;14.20
20289;BMP180;10303;51.960;8.372;2023-03-21T08:01:42;100416.00;;;14.20
20289;BMP180;10303;51.960;8.372;2023-03-21T08:04:08;100417.00;;;14.20
20289;BMP180;10303;51.960;8.372;2023-03-21T08:06:34;100417.00;;;14.20
20289;BMP180;10303;51.960;8.372;2023-03-21T08:09:00;100426.00;;;14.20
20289;BMP180;10303;51.960;8.372;2023-03-21T08:11:28;100430.00;;;14.20
20289;BMP180;10303;51.960;8.372;2023-03-21T08:13:57;100429.00;;;14.20
20289;BMP180;10303;51.960;8.372;2023-03-21T08:16:23;100423.00;;;14.10
20289;BMP180;10303;51.960;8.372;2023-03-21T08:18:49;100416.00;;;14.10
20289;BMP180;10303;51.960;8.372;2023-03-21T08:21:15;100413.00;;;14.10
20289;BMP180;10303;51.960;8.372;2023-03-21T08:23:41;100415.00;;;14.10
20289;BMP180;10303;51.960;8.372;2023-03-21T08:26:08;100420.00;;;14.10
20289;BMP180;10303;51.960;8.372;2023-03-21T08:28:36;100420.00;;;14.10
20289;BMP180;10303;51.960;8.372;2023-03-21T08:31:09;100416.00;;;14.10
20289;BMP180;10303;51.960;8.372;2023-03-21T08:33:36;100422.00;;;14.20
20289;BMP180;10303;51.960;8.372;2023-03-21T08:36:03;100417.00;;;14.10
20289;BMP180;10303;51.960;8.372;2023-03-21T08:38:29;100414.00;;;14.20
20289;BMP180;10303;51.960;8.372;2023-03-21T08:40:59;100414.00;;;14.10
20289;BMP180;10303;51.960;8.372;2023-03-21T08:43:26;100418.00;;;14.10
20289;BMP180;10303;51.960;8.372;2023-03-21T08:45:53;100420.00;;;14.10
20289;BMP180;10303;51.960;8.372;2023-03-21T08:48:19;100435.00;;;14.00
20289;BMP180;10303;51.960;8.372;2023-03-21T08:50:45;100422.00;;;14.00
20289;BMP180;10303;51.960;8.372;2023-03-21T08:53:11;100416.00;;;14.00
20289;BMP180;10303;51.960;8.372;2023-03-21T08:55:37;100423.00;;;14.00
20289;BMP180;10303;51.960;8.372;2023-03-21T08:58:04;100423.00;;;14.00
20289;BMP180;10303;51.960;8.372;2023-03-21T09:00:30;100427.00;;;13.90
20289;BMP180;10303;51.960;8.372;2023-03-21T09:02:56;100420.00;;;13.90
20289;BMP180;10303;51.960;8.372;2023-03-21T09:05:24;100421.00;;;13.90
20289;BMP180;10303;51.960;8.372;2023-03-21T09:07:51;100419.00;;;13.90
20289;BMP180;10303;51.960;8.372;2023-03-21T09:10:20;100425.00;;;13.90
20289;BMP180;10303;51.960;8.372;2023-03-21T09:12:52;100418.00;;;13.80
20289;BMP180;10303;51.960;8.372;2023-03-21T09:15:19;100421.00;;;13.90
20289;BMP180;10303;51.960;8.372;2023-03-21T09:17:46;100407.00;;;13.90
20289;BMP180;10303;51.960;8.372;2023-03-21T09:20:18;100419.00;;;13.90
20289;BMP180;10303;51.960;8.372;2023-03-21T09:22:49;100420.00;;;13.80
20289;BMP180;10303;51.960;8.372;2023-03-21T09:25:17;100421.00;;;13.90
20289;BMP180;10303;51.960;8.372;2023-03-21T09:27:44;100421.00;;;13.90
20289;BMP180;10303;51.960;8.372;2023-03-21T09:30:18;100426.00;;;13.80
20289;BMP180;10303;51.960;8.372;2023-03-21T09:32:45;100417.00;;;13.90
20289;BMP180;10303;51.960;8.372;2023-03-21T09:35:15;100413.00;;;13.90
20289;BMP180;10303;51.960;8.372;2023-03-21T09:37:42;100411.00;;;13.90
20289;BMP180;10303;51.960;8.372;2023-03-21T09:40:57;100407.00;;;13.90
20289;BMP180;10303;51.960;8.372;2023-03-21T09:46:52;100422.00;;;14.00
20289;BMP180;10303;51.960;8.372;2023-03-21T09:49:30;100413.00;;;14.00
20289;BMP180;10303;51.960;8.372;2023-03-21T09:52:06;100412.00;;;14.00
20289;BMP180;10303;51.960;8.372;2023-03-21T09:54:41;100413.00;;;13.90
20289;BMP180;10303;51.960;8.372;2023-03-21T09:59:47;100421.00;;;13.90
20289;BMP180;10303;51.960;8.372;2023-03-21T10:02:25;100410.00;;;13.90
20289;BMP180;10303;51.960;8.372;2023-03-21T10:05:00;100410.00;;;13.90
20289;BMP180;10303;51.960;8.372;2023-03-21T10:07:39;100403.00;;;13.90
20289;BMP180;10303;51.960;8.372;2023-03-21T10:10:14;100407.00;;;13.90
20289;BMP180;10303;51.960;8.372;2023-03-21T10:12:44;100404.00;;;14.00
20289;BMP180;10303;51.960;8.372;2023-03-21T10:15:18;100398.00;;;14.00
20289;BMP180;10303;51.960;8.372;2023-03-21T10:20:24;100390.00;;;14.10
20289;BMP180;10303;51.960;8.372;2023-03-21T10:22:54;100392.00;;;14.10
20289;BMP180;10303;51.960;8.372;2023-03-21T10:26:04;100384.00;;;14.00
20289;BMP180;10303;51.960;8.372;2023-03-21T10:28:37;100387.00;;;14.10
20289;BMP180;10303;51.960;8.372;2023-03-21T10:31:08;100389.00;;;14.10
20289;BMP180;10303;51.960;8.372;2023-03-21T10:33:41;100391.00;;;14.20
20289;BMP180;10303;51.960;8.372;2023-03-21T10:36:19;100381.00;;;14.20
20289;BMP180;10303;51.960;8.372;2023-03-21T10:38:54;100381.00;;;14.20
20289;BMP180;10303;51.960;8.372;2023-03-21T10:41:21;100377.00;;;14.30
20289;BMP180;10303;51.960;8.372;2023-03-21T10:44:12;100379.00;;;14.30
20289;BMP180;10303;51.960;8.372;2023-03-21T10:46:55;100381.00;;;14.40
20289;BMP180;10303;51.960;8.372;2023-03-21T10:49:22;100381.00;;;14.50
20289;BMP180;10303;51.960;8.372;2023-03-21T10:51:56;100375.00;;;14.50
20289;BMP180;10303;51.960;8.372;2023-03-21T10:54:28;100382.00;;;14.50
20289;BMP180;10303;51.960;8.372;2023-03-21T10:59:26;100380.00;;;14.60
20289;BMP180;10303;51.960;8.372;2023-03-21T11:01:55;100381.00;;;14.60
20289;BMP180;10303;51.960;8.372;2023-03-21T11:04:26;100383.00;;;14.60
20289;BMP180;10303;51.960;8.372;2023-03-21T11:06:57;100379.00;;;14.50
20289;BMP180;10303;51.960;8.372;2023-03-21T11:09:52;100371.00;;;14.40
20289;BMP180;10303;51.960;8.372;2023-03-21T11:12:38;100374.00;;;14.40
20289;BMP180;10303;51.960;8.372;2023-03-21T11:15:29;100375.00;;;14.40
20289;BMP180;10303;51.960;8.372;2023-03-21T11:17:58;100360.00;;;14.50
20289;BMP180;10303;51.960;8.372;2023-03-21T11:20:30;100355.00;;;14.50
20289;BMP180;10303;51.960;8.372;2023-03-21T11:22:56;100360.00;;;14.60
20289;BMP180;10303;51.960;8.372;2023-03-21T11:25:38;100365.00;;;14.60
20289;BMP180;10303;51.960;8.372;2023-03-21T11:28:15;100363.00;;;14.60
20289;BMP180;10303;51.960;8.372;2023-03-21T11:30:58;100358.00;;;14.60
20289;BMP180;10303;51.960;8.372;2023-03-21T11:33:51;100349.00;;;14.60
20289;BMP180;10303;51.960;8.372;2023-03-21T11:38:47;100356.00;;;14.70
20289;BMP180;10303;51.960;8.372;2023-03-21T11:41:46;100348.00;;;14.70
20289;BMP180;10303;51.960;8.372;2023-03-21T11:44:39;100346.00;;;14.70
20289;BMP180;10303;51.960;8.372;2023-03-21T11:47:09;100344.00;;;14.70
20289;BMP180;10303;51.960;8.372;2023-03-21T11:49:35;100338.00;;;14.80
20289;BMP180;10303;51.960;8.372;2023-03-21T11:52:19;100336.00;;;14.70
20289;BMP180;10303;51.960;8.372;2023-03-21T12:00:38;100324.00;;;14.70
20289;BMP180;10303;51.960;8.372;2023-03-21T12:03:52;100315.00;;;14.70
20289;BMP180;10303;51.960;8.372;2023-03-21T12:06:40;100315.00;;;14.70
20289;BMP180;10303;51.960;8.372;2023-03-21T12:12:17;100318.00;;;14.70
20289;BMP180;10303;51.960;8.372;2023-03-21T12:15:12;100307.00;;;14.70
20289;BMP180;10303;51.960;8.372;2023-03-21T12:29:36;100287.00;;;14.80
20289;BMP180;10303;51.960;8.372;2023-03-21T12:32:50;100279.00;;;14.80
20289;BMP180;10303;51.960;8.372;2023-03-21T12:38:17;100277.00;;;14.80
20289;BMP180;10303;51.960;8.372;2023-03-21T12:41:27;100279.00;;;14.90
20289;BMP180;10303;51.960;8.372;2023-03-21T12:44:14;100276.00;;;14.90
20289;BMP180;10303;51.960;8.372;2023-03-21T12:47:01;100271.00;;;14.90
20289;BMP180;10303;51.960;8.372;2023-03-21T12:49:38;100274.00;;;15.00
20289;BMP180;10303;51.960;8.372;2023-03-21T12:52:14;100277.00;;;15.00
20289;BMP180;10303;51.960;8.372;2023-03-21T12:54:49;100276.00;;;15.00
20289;BMP180;10303;51.960;8.372;2023-03-21T12:57:25;100275.00;;;15.00
20289;BMP180;10303;51.960;8.372;2023-03-21T13:00:18;100266.00;;;15.00
20289;BMP180;10303;51.960;8.372;2023-03-21T13:02:56;100270.00;;;15.00
20289;BMP180;10303;51.960;8.372;2023-03-21T13:05:45;100262.00;;;15.00
20289;BMP180;10303;51.960;8.372;2023-03-21T13:08:22;100247.00;;;15.00
20289;BMP180;10303;51.960;8.372;2023-03-21T13:10:49;100243.00;;;15.00
20289;BMP180;10303;51.960;8.372;2023-03-21T13:13:31;100249.00;;;15.10
20289;BMP180;10303;51.960;8.372;2023-03-21T13:16:12;100257.00;;;15.10
20289;BMP180;10303;51.960;8.372;2023-03-21T13:21:59;100246.00;;;15.20
20289;BMP180;10303;51.960;8.372;2023-03-21T13:27:33;100238.00;;;15.30
20289;BMP180;10303;51.960;8.372;2023-03-21T13:32:43;100229.00;;;15.40
20289;BMP180;10303;51.960;8.372;2023-03-21T13:35:24;100227.00;;;15.40
20289;BMP180;10303;51.960;8.372;2023-03-21T13:38:18;100217.00;;;15.50
20289;BMP180;10303;51.960;8.372;2023-03-21T13:40:55;100216.00;;;15.60
20289;BMP180;10303;51.960;8.372;2023-03-21T13:51:49;100208.00;;;15.60
20289;BMP180;10303;51.960;8.372;2023-03-21T13:54:44;100201.00;;;15.60
20289;BMP180;10303;51.960;8.372;2023-03-21T14:00:27;100182.00;;;15.70
20289;BMP180;10303;51.960;8.372;2023-03-21T14:03:12;100182.00;;;15.70
20289;BMP180;10303;51.960;8.372;2023-03-21T14:05:40;100169.00;;;15.80
20289;BMP180;10303;51.960;8.372;2023-03-21T14:08:15;100162.00;;;15.80
20289;BMP180;10303;51.960;8.372;2023-03-21T14:10:46;100163.00;;;15.80
20289;BMP180;10303;51.960;8.372;2023-03-21T14:13:21;100161.00;;;15.80
20289;BMP180;10303;51.960;8.372;2023-03-21T14:16:04;100161.00;;;15.80
20289;BMP180;10303;51.960;8.372;2023-03-21T14:19:00;100161.00;;;15.80
20289;BMP180;10303;51.960;8.372;2023-03-21T14:21:30;100146.00;;;15.80
20289;BMP180;10303;51.960;8.372;2023-03-21T14:24:10;100147.00;;;15.80
20289;BMP180;10303;51.960;8.372;2023-03-21T14:26:42;100150.00;;;15.80
20289;BMP180;10303;51.960;8.372;2023-03-21T14:29:24;100149.00;;;15.80
20289;BMP180;10303;51.960;8.372;2023-03-21T14:31:51;100154.00;;;15.80
20289;BMP180;10303;51.960;8.372;2023-03-21T14:34:19;100146.00;;;15.80
20289;BMP180;10303;51.960;8.372;2023-03-21T14:36:46;100151.00;;;15.80
20289;BMP180;10303;51.960;8.372;2023-03-21T14:39:28;100158.00;;;15.80
20289;BMP180;10303;51.960;8.372;2023-03-21T14:44:36;100146.00;;;15.70
20289;BMP180;10303;51.960;8.372;2023-03-21T14:47:07;100145.00;;;15.70
20289;BMP180;10303;51.960;8.372;2023-03-21T14:49:37;100135.00;;;15.60
20289;BMP180;10303;51.960;8.372;2023-03-21T14:52:10;100135.00;;;15.60
20289;BMP180;10303;51.960;8.372;2023-03-21T14:54:39;100126.00;;;15.60
20289;BMP180;10303;51.960;8.372;2023-03-21T14:57:19;100112.00;;;15.60
20289;BMP180;10303;51.960;8.372;2023-03-21T14:59:49;100101.00;;;15.60
20289;BMP180;10303;51.960;8.372;2023-03-21T15:02:25;100101.00;;;15.60
20289;BMP180;10303;51.960;8.372;2023-03-21T15:04:56;100106.00;;;15.60
20289;BMP180;10303;51.960;8.372;2023-03-21T15:07:32;100108.00;;;15.60
20289;BMP180;10303;51.960;8.372;2023-03-21T15:10:13;100104.00;;;15.60
20289;BMP180;10303;51.960;8.372;2023-03-21T15:12:53;100108.00;;;15.60
20289;BMP180;10303;51.960;8.372;2023-03-21T15:15:22;100104.00;;;15.60
20289;BMP180;10303;51.960;8.372;2023-03-21T15:17:50;100111.00;;;15.60
20289;BMP180;10303;51.960;8.372;2023-03-21T15:20:25;100106.00;;;15.60
20289;BMP180;10303;51.960;8.372;2023-03-21T15:22:59;100104.00;;;15.60
20289;BMP180;10303;51.960;8.372;2023-03-21T15:25:32;100102.00;;;15.60
20289;BMP180;10303;51.960;8.372;2023-03-21T15:27:59;100099.00;;;15.60
20289;BMP180;10303;51.960;8.372;2023-03-21T15:30:29;100083.00;;;15.60
20289;BMP180;10303;51.960;8.372;2023-03-21T15:32:57;100095.00;;;15.60
20289;BMP180;10303;51.960;8.372;2023-03-21T15:35:42;100078.00;;;15.50
20289;BMP180;10303;51.960;8.372;2023-03-21T15:38:41;100102.00;;;15.50
20289;BMP180;10303;51.960;8.372;2023-03-21T15:46:40;100095.00;;;15.40
20289;BMP180;10303;51.960;8.372;2023-03-21T15:54:48;100101.00;;;15.30
20289;BMP180;10303;51.960;8.372;2023-03-21T15:57:28;100093.00;;;15.30
20289;BMP180;10303;51.960;8.372;2023-03-21T16:02:44;100090.00;;;15.30
20289;BMP180;10303;51.960;8.372;2023-03-21T16:05:31;100090.00;;;15.20
20289;BMP180;10303;51.960;8.372;2023-03-21T16:08:32;100083.00;;;15.20